Time;durP1;ratioP1;P1;durP2;ratioP2;P2;SDS_P1;SDS_P2;PMS_P1;PMS_P2;Temp;Humidity;BMP_temperature;BMP_pressure;BME280_temperature;BME280_humidity;BME280_pressure;Samples;Min_cycle;Max_cycle;Signal;HPM_P1;HPM_P2
2022/01/05 00:00:05;;;;;;;28.42;9.05;;;;;;;-5.33;69.12;98051.19;5033904;28;20060;-62
2022/01/05 00:02:32;;;;;;;27.50;9.32;;;;;;;-5.29;69.19;98063.94;5033212;28;20046;-62
2022/01/05 00:04:59;;;;;;;20.27;8.23;;;;;;;-5.39;69.25;98057.66;5034154;28;20108;-62
2022/01/05 00:07:26;;;;;;;26.15;9.07;;;;;;;-5.28;69.41;98065.53;5033459;28;20049;-62
2022/01/05 00:09:53;;;;;;;21.90;8.38;;;;;;;-5.18;69.27;98064.75;5033771;28;20053;-62
2022/01/05 00:12:20;;;;;;;19.75;8.95;;;;;;;-5.11;69.12;98062.59;5033439;28;20076;-62
2022/01/05 00:14:47;;;;;;;27.15;9.38;;;;;;;-5.10;68.96;98053.41;5034250;28;20049;-62
2022/01/05 00:17:13;;;;;;;28.92;9.45;;;;;;;-5.09;68.76;98052.31;5033568;28;20041;-62
2022/01/05 00:19:40;;;;;;;27.17;10.35;;;;;;;-5.07;69.12;98055.56;5033107;28;20080;-62
2022/01/05 00:22:07;;;;;;;26.13;9.27;;;;;;;-5.07;69.15;98050.16;5025715;28;20080;-62
2022/01/05 00:24:36;;;;;;;25.20;8.90;;;;;;;-5.06;69.33;98041.75;5033197;28;20132;-61
2022/01/05 00:27:04;;;;;;;21.85;8.52;;;;;;;-5.02;69.34;98042.00;5033388;28;20535;-63
2022/01/05 00:29:30;;;;;;;25.88;9.80;;;;;;;-4.98;69.31;98034.97;5032963;28;20053;-60
2022/01/05 00:31:58;;;;;;;26.75;9.88;;;;;;;-5.01;69.14;98041.75;5032943;28;20649;-60
2022/01/05 00:34:25;;;;;;;23.48;9.48;;;;;;;-5.01;69.16;98044.44;5032003;28;20049;-59
2022/01/05 00:36:52;;;;;;;23.90;9.00;;;;;;;-4.97;69.02;98033.88;5033078;28;20444;-61
2022/01/05 00:39:19;;;;;;;33.45;10.35;;;;;;;-4.94;68.84;98033.34;5032835;28;20057;-58
2022/01/05 00:41:46;;;;;;;31.25;9.98;;;;;;;-4.94;69.11;98038.78;5033147;28;20393;-58
2022/01/05 00:44:13;;;;;;;23.65;9.25;;;;;;;-4.92;68.82;98037.41;5032824;28;20081;-61
2022/01/05 00:46:39;;;;;;;26.75;9.23;;;;;;;-4.95;69.21;98039.88;5032811;28;20045;-61
2022/01/05 00:49:06;;;;;;;28.77;9.50;;;;;;;-4.96;69.04;98025.50;5031317;28;20409;-61
2022/01/05 00:51:33;;;;;;;28.92;9.27;;;;;;;-4.88;69.58;98029.56;5032346;28;20144;-61
2022/01/05 00:54:00;;;;;;;25.52;9.73;;;;;;;-4.91;69.25;98024.69;5031975;28;20059;-61
2022/01/05 00:56:27;;;;;;;26.77;9.23;;;;;;;-4.92;69.12;98025.78;5028032;28;20100;-60
2022/01/05 00:58:54;;;;;;;30.67;9.55;;;;;;;-4.90;69.09;98018.16;5032781;28;20049;-62
2022/01/05 01:01:21;;;;;;;33.40;11.55;;;;;;;-4.89;69.04;98023.31;5032362;28;20073;-61
2022/01/05 01:03:48;;;;;;;26.08;9.60;;;;;;;-4.92;69.33;98017.63;5032643;28;20470;-62
2022/01/05 01:06:16;;;;;;;29.20;9.65;;;;;;;-4.95;69.70;98012.75;5032272;28;20045;-61
2022/01/05 01:08:42;;;;;;;30.13;9.98;;;;;;;-4.94;69.32;98006.25;5028120;28;20056;-60
2022/01/05 01:11:10;;;;;;;34.50;11.85;;;;;;;-4.93;69.25;98019.53;5028657;28;20131;-61
2022/01/05 01:13:37;;;;;;;25.13;10.00;;;;;;;-4.93;69.39;98018.69;5032334;28;20061;-60
2022/01/05 01:16:04;;;;;;;29.25;10.15;;;;;;;-4.94;69.94;98008.94;5032003;28;20048;-62
2022/01/05 01:18:33;;;;;;;25.02;9.85;;;;;;;-4.92;69.27;98009.50;5032551;28;20045;-62
2022/01/05 01:21:00;;;;;;;30.48;12.65;;;;;;;-4.98;69.43;98011.38;5031836;28;20080;-61
2022/01/05 01:23:27;;;;;;;31.83;10.65;;;;;;;-5.03;69.77;98002.44;5032397;28;20482;-61
2022/01/05 01:25:54;;;;;;;31.88;12.52;;;;;;;-5.10;69.41;97999.19;5031895;28;20084;-61
2022/01/05 01:28:23;;;;;;;33.25;10.55;;;;;;;-5.15;69.70;97999.19;5032074;28;20056;-61
2022/01/05 01:30:50;;;;;;;28.58;9.50;;;;;;;-5.21;70.25;98006.47;5032372;28;20057;-62
2022/01/05 01:33:18;;;;;;;26.00;9.93;;;;;;;-5.26;69.81;97997.53;5029546;28;20060;-62
2022/01/05 01:35:45;;;;;;;25.08;11.43;;;;;;;-5.30;70.09;97991.03;5031981;28;20053;-61
2022/01/05 01:38:12;;;;;;;26.95;10.23;;;;;;;-5.28;70.00;97994.25;5031484;28;20555;-62
2022/01/05 01:40:39;;;;;;;22.67;10.38;;;;;;;-5.25;69.88;97983.72;5031951;28;20107;-62
2022/01/05 01:43:06;;;;;;;22.40;9.57;;;;;;;-5.22;70.51;97982.34;5031825;28;20124;-62
2022/01/05 01:45:34;;;;;;;24.45;9.65;;;;;;;-5.24;70.10;97985.34;5031131;28;20045;-59
2022/01/05 01:48:01;;;;;;;28.70;9.65;;;;;;;-5.23;70.13;97986.97;5031932;28;21071;-59
2022/01/05 01:50:28;;;;;;;31.13;11.98;;;;;;;-5.25;69.91;97983.72;5032069;28;20115;-58
2022/01/05 01:52:55;;;;;;;26.13;9.70;;;;;;;-5.29;70.18;97981.81;5031203;28;20148;-59
2022/01/05 01:55:22;;;;;;;21.38;9.40;;;;;;;-5.23;70.01;97975.31;5031929;28;20059;-58
2022/01/05 01:57:50;;;;;;;31.17;11.43;;;;;;;-5.23;69.79;97964.47;5031255;28;20918;-60
2022/01/05 02:00:16;;;;;;;33.45;11.30;;;;;;;-5.19;69.98;97970.97;5028599;28;20063;-59
2022/01/05 02:02:45;;;;;;;24.33;9.63;;;;;;;-5.15;69.60;97953.09;5031357;28;20057;-58
2022/01/05 02:05:13;;;;;;;20.85;9.90;;;;;;;-5.24;70.22;97947.41;5032164;28;20053;-59
2022/01/05 02:07:40;;;;;;;32.72;10.75;;;;;;;-5.27;70.07;97944.44;5031740;28;20524;-58
2022/01/05 02:10:09;;;;;;;27.45;9.70;;;;;;;-5.23;69.76;97953.63;5034295;28;20513;-59
2022/01/05 02:12:37;;;;;;;21.98;9.05;;;;;;;-5.22;70.06;97955.25;5035982;28;20057;-60
2022/01/05 02:15:05;;;;;;;25.23;9.45;;;;;;;-5.21;70.09;97951.47;5035400;28;20124;-58
2022/01/05 02:17:49;;;;;;;31.52;10.88;;;;;;;-5.15;70.32;97944.97;5035824;28;20140;-58
2022/01/05 02:20:19;;;;;;;30.45;11.35;;;;;;;-5.14;70.60;97946.59;5035415;28;20068;-58
2022/01/05 02:22:47;;;;;;;28.10;10.35;;;;;;;-5.17;69.91;97941.72;5035441;28;20050;-58
2022/01/05 02:25:15;;;;;;;29.30;11.93;;;;;;;-5.17;70.49;97936.28;5035718;28;20077;-60
2022/01/05 02:27:45;;;;;;;23.55;9.27;;;;;;;-5.17;70.39;97930.88;5035647;28;20512;-59
2022/01/05 02:30:17;;;;;;;31.63;12.07;;;;;;;-5.17;70.42;97931.69;5035580;28;20053;-60
2022/01/05 02:32:44;;;;;;;30.08;10.45;;;;;;;-5.19;70.51;97927.59;5031466;28;20085;-60
2022/01/05 02:35:11;;;;;;;31.52;10.07;;;;;;;-5.20;70.51;97921.41;5034899;28;20498;-59
2022/01/05 02:37:47;;;;;;;23.83;8.75;;;;;;;-5.14;70.54;97931.16;5035110;28;20041;-58
2022/01/05 02:40:16;;;;;;;26.63;10.75;;;;;;;-5.15;70.39;97921.38;5035053;28;20055;-60
2022/01/05 02:42:44;;;;;;;23.00;8.57;;;;;;;-5.15;70.46;97915.16;5035229;28;20053;-58
2022/01/05 02:45:12;;;;;;;28.13;10.65;;;;;;;-5.16;70.50;97917.06;5034650;28;20041;-58
2022/01/05 02:47:40;;;;;;;24.83;9.50;;;;;;;-5.15;70.20;97917.88;5035109;28;20049;-60
2022/01/05 02:50:09;;;;;;;28.67;9.98;;;;;;;-5.17;70.30;97911.91;5034818;28;20053;-57
2022/01/05 02:52:36;;;;;;;23.40;9.05;;;;;;;-5.11;70.16;97908.94;5034943;28;20072;-59
2022/01/05 02:55:04;;;;;;;20.73;8.60;;;;;;;-5.15;70.58;97907.81;5034052;28;20099;-59
2022/01/05 02:57:31;;;;;;;22.20;9.02;;;;;;;-5.17;70.01;97910.00;5034635;28;20500;-59
2022/01/05 02:59:58;;;;;;;26.80;9.43;;;;;;;-5.19;70.38;97903.22;5034420;28;20058;-58
2022/01/05 03:02:25;;;;;;;28.33;9.35;;;;;;;-5.19;70.17;97901.34;5034793;28;20481;-59
2022/01/05 03:04:52;;;;;;;30.92;9.68;;;;;;;-5.15;70.66;97898.91;5034344;28;20100;-58
2022/01/05 03:07:19;;;;;;;31.30;10.63;;;;;;;-5.14;70.71;97897.81;5031402;28;20137;-59
2022/01/05 03:09:46;;;;;;;15.82;6.13;;;;;;;-5.15;70.48;97897.00;5030144;28;20511;-59
2022/01/05 03:12:13;;;;;;;29.63;10.60;;;;;;;-5.17;70.28;97910.00;5031343;28;20055;-59
2022/01/05 03:14:40;;;;;;;24.92;10.18;;;;;;;-5.21;71.02;97895.38;5034573;28;20076;-59
2022/01/05 03:17:07;;;;;;;27.92;10.20;;;;;;;-5.16;70.41;97894.53;5034522;28;20075;-59
2022/01/05 03:19:34;;;;;;;29.63;9.30;;;;;;;-5.10;70.90;97901.63;5034151;28;20088;-59
2022/01/05 03:22:02;;;;;;;31.85;13.40;;;;;;;-5.10;70.96;97888.06;5033993;28;20050;-59
2022/01/05 03:24:29;;;;;;;27.27;9.52;;;;;;;-5.23;70.65;97886.72;5033550;28;20052;-59
2022/01/05 03:26:56;;;;;;;27.67;10.65;;;;;;;-5.22;71.20;97884.78;5034424;28;20058;-58
2022/01/05 03:29:23;;;;;;;21.10;9.52;;;;;;;-5.18;70.93;97880.47;5034693;28;20077;-59
2022/01/05 03:31:50;;;;;;;28.90;11.00;;;;;;;-5.29;71.19;97889.69;5033804;28;20053;-58
2022/01/05 03:34:19;;;;;;;29.50;9.82;;;;;;;-5.27;71.16;97885.63;5028299;28;20045;-58
2022/01/05 03:36:47;;;;;;;21.30;8.73;;;;;;;-5.23;70.99;97888.59;5034343;28;20045;-59
2022/01/05 03:39:14;;;;;;;28.98;9.32;;;;;;;-5.27;71.26;97868.56;5034361;28;20393;-59
2022/01/05 03:41:42;;;;;;;37.33;11.68;;;;;;;-5.24;71.22;97885.06;5033775;28;20611;-58
2022/01/05 03:44:09;;;;;;;37.40;13.15;;;;;;;-5.20;71.22;97875.34;5033087;28;20155;-60
2022/01/05 03:46:36;;;;;;;33.08;10.75;;;;;;;-5.21;71.30;97875.59;5032519;28;20468;-59
2022/01/05 03:49:04;;;;;;;34.88;11.20;;;;;;;-5.24;71.50;97881.56;5032950;28;20061;-58
2022/01/05 03:51:31;;;;;;;29.70;8.80;;;;;;;-5.24;71.33;97876.94;5033321;28;20061;-61
2022/01/05 03:53:58;;;;;;;29.75;8.68;;;;;;;-5.30;71.59;97872.59;5034132;28;20054;-59
2022/01/05 03:56:25;;;;;;;33.33;12.88;;;;;;;-5.25;71.84;97874.50;5033705;28;20048;-59
2022/01/05 03:58:52;;;;;;;35.50;14.05;;;;;;;-5.27;71.60;97871.28;5033638;28;20061;-59
2022/01/05 04:01:19;;;;;;;34.60;9.95;;;;;;;-5.37;71.86;97869.38;5034013;28;20076;-60
2022/01/05 04:03:46;;;;;;;34.80;10.25;;;;;;;-5.35;71.90;97869.09;5033242;28;20053;-59
2022/01/05 04:06:14;;;;;;;26.88;11.20;;;;;;;-5.33;71.57;97867.72;5033490;28;20057;-58
2022/01/05 04:08:41;;;;;;;37.15;11.93;;;;;;;-5.32;71.74;97871.25;5033196;28;20104;-59
2022/01/05 04:11:08;;;;;;;27.80;11.23;;;;;;;-5.27;71.91;97871.28;5032351;28;20049;-58
2022/01/05 04:13:35;;;;;;;34.90;14.15;;;;;;;-5.26;71.69;97853.91;5033397;28;20053;-59
2022/01/05 04:16:02;;;;;;;24.13;9.07;;;;;;;-5.27;71.56;97855.00;5032351;28;20050;-59
2022/01/05 04:18:29;;;;;;;32.60;9.88;;;;;;;-5.25;71.78;97847.41;5033122;28;20073;-58
2022/01/05 04:20:56;;;;;;;32.20;11.20;;;;;;;-5.22;71.78;97847.69;5033326;28;20067;-59
2022/01/05 04:23:23;;;;;;;32.25;10.85;;;;;;;-5.22;71.54;97847.69;5033497;28;20054;-59
2022/01/05 04:25:50;;;;;;;37.35;14.35;;;;;;;-5.18;71.65;97843.31;5029727;28;20064;-60
2022/01/05 04:28:17;;;;;;;38.45;11.35;;;;;;;-5.17;71.85;97846.88;5033190;28;20057;-58
2022/01/05 04:30:44;;;;;;;28.58;10.75;;;;;;;-5.17;71.92;97842.25;5032059;28;20057;-60
2022/01/05 04:33:10;;;;;;;30.85;10.75;;;;;;;-5.13;71.81;97845.25;5024377;28;20057;-59
2022/01/05 04:35:57;;;;;;;28.75;9.80;;;;;;;-5.11;71.48;97843.88;5030227;28;20147;-60
2022/01/05 04:38:24;;;;;;;27.77;9.57;;;;;;;-5.09;72.00;97846.31;5032802;28;20385;-59
2022/01/05 04:40:51;;;;;;;30.02;11.35;;;;;;;-5.16;71.87;97851.19;5029180;28;20080;-58
2022/01/05 04:43:18;;;;;;;31.40;9.38;;;;;;;-5.19;72.05;97827.34;5032902;28;20424;-59
2022/01/05 04:45:45;;;;;;;28.95;11.35;;;;;;;-5.23;71.79;97837.13;5032854;28;20460;-59
2022/01/05 04:48:12;;;;;;;34.05;11.98;;;;;;;-5.30;72.30;97847.44;5033121;28;20448;-59
2022/01/05 04:50:39;;;;;;;27.48;11.73;;;;;;;-5.31;72.22;97840.38;5032503;28;20045;-56
2022/01/05 04:53:06;;;;;;;32.78;12.57;;;;;;;-5.31;71.98;97833.06;5033491;28;20063;-60
2022/01/05 04:55:33;;;;;;;26.23;9.50;;;;;;;-5.28;72.42;97832.50;5032538;28;20520;-60
2022/01/05 04:57:59;;;;;;;32.17;10.15;;;;;;;-5.21;72.18;97833.03;5032891;28;20069;-59
2022/01/05 05:00:27;;;;;;;40.28;12.63;;;;;;;-5.15;71.86;97848.19;5032769;28;20053;-58
2022/01/05 05:02:53;;;;;;;27.85;9.57;;;;;;;-5.16;71.71;97818.66;5032393;28;20135;-58
2022/01/05 05:05:20;;;;;;;33.40;10.10;;;;;;;-5.17;71.93;97811.63;5033099;28;20063;-59
2022/01/05 05:07:47;;;;;;;38.42;13.30;;;;;;;-5.22;71.91;97808.94;5027756;28;20038;-58
2022/01/05 05:10:14;;;;;;;30.80;9.73;;;;;;;-5.29;71.74;97808.41;5027738;28;20050;-58
2022/01/05 05:12:41;;;;;;;23.95;8.98;;;;;;;-5.32;72.31;97807.06;5032383;28;20478;-59
2022/01/05 05:15:08;;;;;;;29.65;11.02;;;;;;;-5.27;71.71;97815.16;5032346;28;20416;-60
2022/01/05 05:17:36;;;;;;;30.05;11.18;;;;;;;-5.25;71.81;97804.88;5032037;28;20049;-57
2022/01/05 05:20:03;;;;;;;30.98;12.43;;;;;;;-5.22;71.73;97800.78;5032173;28;20053;-59
2022/01/05 05:22:30;;;;;;;34.10;11.77;;;;;;;-5.28;71.80;97794.59;5032205;28;20064;-60
2022/01/05 05:24:58;;;;;;;26.98;10.32;;;;;;;-5.36;71.97;97791.63;5032206;28;20058;-58
2022/01/05 05:27:25;;;;;;;41.08;11.52;;;;;;;-5.40;72.05;97785.13;5031776;28;20049;-59
2022/01/05 05:29:52;;;;;;;25.60;9.93;;;;;;;-5.44;72.01;97784.06;5032292;28;20166;-60
2022/01/05 05:32:19;;;;;;;22.90;9.85;;;;;;;-5.44;72.04;97789.47;5030886;28;20060;-59
2022/01/05 05:34:46;;;;;;;23.50;8.57;;;;;;;-5.47;72.20;97777.28;5024005;28;20045;-60
2022/01/05 05:37:15;;;;;;;33.67;13.35;;;;;;;-5.50;72.03;97777.00;5031483;28;20485;-59
2022/01/05 05:39:44;;;;;;;29.55;10.10;;;;;;;-5.48;72.25;97777.56;5032225;28;20080;-60
2022/01/05 05:42:11;;;;;;;38.20;12.90;;;;;;;-5.42;72.51;97768.34;5031467;28;20053;-59
2022/01/05 05:44:37;;;;;;;25.52;9.88;;;;;;;-5.39;72.03;97759.66;5032145;28;20088;-58
2022/01/05 05:47:07;;;;;;;35.80;11.13;;;;;;;-5.45;72.22;97755.34;5031316;28;20448;-58
2022/01/05 05:49:34;;;;;;;25.83;9.98;;;;;;;-5.53;72.51;97747.78;5032437;28;20057;-59
2022/01/05 05:52:01;;;;;;;20.27;9.52;;;;;;;-5.57;72.26;97752.13;5031421;28;20475;-60
2022/01/05 05:54:30;;;;;;;19.15;8.02;;;;;;;-5.59;72.47;97752.41;5031653;28;20071;-59
2022/01/05 05:56:58;;;;;;;20.85;8.90;;;;;;;-5.58;72.19;97745.06;5031368;28;20049;-59
2022/01/05 05:59:25;;;;;;;37.00;11.27;;;;;;;-5.56;72.74;97743.72;5032143;28;20463;-58
2022/01/05 06:01:52;;;;;;;16.75;7.28;;;;;;;-5.50;72.33;97755.34;5031482;28;20390;-61
2022/01/05 06:04:19;;;;;;;26.65;8.50;;;;;;;-5.48;72.09;97761.31;5031952;28;20460;-60
2022/01/05 06:06:46;;;;;;;35.05;11.40;;;;;;;-5.46;72.15;97761.84;5031762;28;20063;-58
2022/01/05 06:09:13;;;;;;;21.35;8.93;;;;;;;-5.46;72.22;97749.09;5031059;28;20057;-59
2022/01/05 06:11:40;;;;;;;24.00;9.40;;;;;;;-5.41;72.14;97751.00;5031949;28;20073;-58
2022/01/05 06:14:07;;;;;;;29.85;7.40;;;;;;;-5.39;71.88;97752.34;5031402;28;20053;-59
2022/01/05 06:16:34;;;;;;;29.65;10.75;;;;;;;-5.38;72.07;97739.59;5031904;28;20092;-59
2022/01/05 06:19:01;;;;;;;29.45;10.52;;;;;;;-5.38;72.36;97761.28;5030149;28;20487;-59
2022/01/05 06:21:28;;;;;;;32.33;10.20;;;;;;;-5.35;71.67;97741.78;5031444;28;20065;-59
2022/01/05 06:23:55;;;;;;;25.33;8.82;;;;;;;-5.34;72.19;97756.94;5031278;28;20175;-59
2022/01/05 06:26:22;;;;;;;24.67;9.85;;;;;;;-5.32;72.06;97743.94;5031695;28;20057;-58
2022/01/05 06:28:50;;;;;;;20.27;8.77;;;;;;;-5.34;72.14;97754.22;5031241;28;20409;-58
2022/01/05 06:31:17;;;;;;;33.53;12.68;;;;;;;-5.33;72.59;97745.03;5031609;28;20077;-60
2022/01/05 06:33:44;;;;;;;18.67;7.65;;;;;;;-5.31;72.02;97734.69;5028423;28;20118;-59
2022/01/05 06:36:11;;;;;;;28.60;10.55;;;;;;;-5.28;72.22;97745.00;5031297;28;20144;-59
2022/01/05 06:38:38;;;;;;;25.42;10.93;;;;;;;-5.28;71.91;97739.56;5031072;28;20053;-59
2022/01/05 06:41:05;;;;;;;21.80;9.95;;;;;;;-5.26;72.23;97737.41;5031164;28;20136;-58
2022/01/05 06:43:32;;;;;;;27.98;11.10;;;;;;;-5.22;71.94;97730.34;5031689;28;20156;-59
2022/01/05 06:45:59;;;;;;;27.38;11.30;;;;;;;-5.16;71.95;97734.66;5031194;28;20050;-58
2022/01/05 06:48:26;;;;;;;26.60;9.23;;;;;;;-5.12;71.27;97743.88;5031695;28;20049;-61
2022/01/05 06:50:52;;;;;;;28.50;9.52;;;;;;;-5.20;71.52;97730.88;5031092;28;20045;-60
2022/01/05 06:53:19;;;;;;;21.30;9.57;;;;;;;-5.19;71.75;97719.78;5029842;28;20153;-59
2022/01/05 06:55:46;;;;;;;22.67;8.55;;;;;;;-5.19;71.92;97730.59;5024565;28;20055;-58
2022/01/05 06:58:13;;;;;;;23.60;8.77;;;;;;;-5.20;72.08;97709.22;5035010;28;20515;-59
2022/01/05 07:00:40;;;;;;;24.38;8.90;;;;;;;-5.13;72.05;97712.47;5034881;28;20054;-59
2022/01/05 07:03:07;;;;;;;20.63;8.80;;;;;;;-5.10;71.88;97709.19;5035080;28;20492;-58
2022/01/05 07:05:34;;;;;;;25.30;9.55;;;;;;;-5.14;71.88;97689.94;5034532;28;20408;-59
2022/01/05 07:08:01;;;;;;;33.25;9.90;;;;;;;-5.12;71.64;97695.09;5034957;28;20128;-58
2022/01/05 07:10:28;;;;;;;23.52;9.10;;;;;;;-5.08;72.17;97688.03;5034574;28;20495;-60
2022/01/05 07:12:55;;;;;;;18.08;8.63;;;;;;;-5.03;71.84;97688.00;5034842;28;20049;-60
2022/01/05 07:15:22;;;;;;;29.25;9.90;;;;;;;-4.93;71.71;97694.19;5034813;28;20500;-60
2022/01/05 07:17:49;;;;;;;25.23;9.05;;;;;;;-4.91;71.96;97691.19;5034358;28;20054;-58
2022/01/05 07:20:16;;;;;;;24.20;8.52;;;;;;;-4.83;71.69;97686.00;5027446;28;20077;-59
2022/01/05 07:22:44;;;;;;;26.58;8.82;;;;;;;-4.84;71.68;97675.44;5033491;28;20080;-59
2022/01/05 07:25:11;;;;;;;16.70;7.13;;;;;;;-4.79;71.05;97678.13;5034718;28;20049;-58
2022/01/05 07:27:38;;;;;;;22.45;8.82;;;;;;;-4.78;71.24;97679.72;5034133;28;20049;-59
2022/01/05 07:30:06;;;;;;;33.25;9.20;;;;;;;-4.80;71.37;97671.09;5034783;28;20049;-57
2022/01/05 07:32:34;;;;;;;31.45;9.40;;;;;;;-4.83;71.18;97677.06;5031112;28;20049;-59
2022/01/05 07:35:01;;;;;;;25.08;9.52;;;;;;;-4.90;71.41;97661.09;5032410;28;20053;-61
2022/01/05 07:37:29;;;;;;;20.25;8.55;;;;;;;-4.93;71.35;97656.25;5033768;28;20704;-59
2022/01/05 07:39:56;;;;;;;27.27;12.52;;;;;;;-4.88;71.48;97647.25;5034667;28;20049;-59
2022/01/05 07:42:23;;;;;;;23.40;9.68;;;;;;;-4.92;71.17;97665.97;5034137;28;20070;-58
2022/01/05 07:44:51;;;;;;;25.42;10.52;;;;;;;-4.97;71.17;97638.91;5034259;28;20049;-59
2022/01/05 07:47:18;;;;;;;24.98;9.85;;;;;;;-4.96;71.55;97640.53;5032114;28;20147;-64
2022/01/05 07:49:45;;;;;;;27.35;8.68;;;;;;;-5.01;71.14;97631.63;5034137;28;20072;-60
2022/01/05 07:52:12;;;;;;;30.88;11.95;;;;;;;-5.02;71.54;97635.41;5033256;28;20090;-61
2022/01/05 07:54:39;;;;;;;24.95;9.60;;;;;;;-5.03;71.68;97612.13;5034288;28;20136;-61
2022/01/05 07:57:06;;;;;;;35.05;10.82;;;;;;;-5.02;71.91;97619.16;5033680;28;20137;-59
2022/01/05 07:59:33;;;;;;;27.45;13.38;;;;;;;-5.10;71.47;97601.56;5034047;28;20103;-57
2022/01/05 08:02:00;;;;;;;31.42;11.02;;;;;;;-5.17;72.27;97620.06;5032536;28;20054;-58
2022/01/05 08:04:27;;;;;;;29.58;10.85;;;;;;;-5.25;71.86;97607.06;5033452;28;20041;-61
2022/01/05 08:06:54;;;;;;;28.38;11.00;;;;;;;-5.33;72.35;97596.03;5033703;28;20050;-57
2022/01/05 08:09:21;;;;;;;17.88;6.68;;;;;;;-5.40;72.51;97584.66;5033024;28;20119;-60
2022/01/05 08:11:48;;;;;;;34.30;14.40;;;;;;;-5.39;72.78;97591.72;5033738;28;20127;-59
2022/01/05 08:14:15;;;;;;;28.00;10.98;;;;;;;-5.41;72.83;97581.16;5033310;28;20056;-58
2022/01/05 08:16:42;;;;;;;29.90;11.95;;;;;;;-5.45;73.01;97582.00;5033526;28;20056;-58
2022/01/05 08:19:09;;;;;;;34.63;12.10;;;;;;;-5.50;73.45;97565.75;5033376;28;20049;-59
2022/01/05 08:21:36;;;;;;;28.27;9.00;;;;;;;-5.52;73.42;97554.38;5033051;28;20053;-60
2022/01/05 08:24:03;;;;;;;37.03;15.63;;;;;;;-5.54;73.71;97551.16;5032916;28;20053;-59
2022/01/05 08:26:30;;;;;;;41.45;16.17;;;;;;;-5.59;74.13;97553.88;5030098;28;20555;-59
2022/01/05 08:28:57;;;;;;;26.27;9.18;;;;;;;-5.67;74.17;97529.03;5032094;28;20136;-59
2022/01/05 08:31:24;;;;;;;28.90;10.48;;;;;;;-5.66;74.38;97517.09;5033351;28;20052;-58
2022/01/05 08:33:51;;;;;;;38.97;12.88;;;;;;;-5.58;74.32;97517.59;5033262;28;20053;-60
2022/01/05 08:36:18;;;;;;;27.77;10.25;;;;;;;-5.55;74.17;97522.44;5032773;28;20053;-59
2022/01/05 08:38:45;;;;;;;22.58;8.10;;;;;;;-5.54;73.88;97516.75;5033081;28;20152;-60
2022/01/05 08:41:12;;;;;;;30.27;13.80;;;;;;;-5.57;74.10;97516.53;5032988;28;20460;-62
2022/01/05 08:43:39;;;;;;;20.00;9.38;;;;;;;-5.60;74.43;97508.94;5033475;28;20057;-61
2022/01/05 08:46:06;;;;;;;32.10;15.00;;;;;;;-5.63;74.63;97509.50;5032469;28;20415;-62
2022/01/05 08:48:34;;;;;;;24.45;10.15;;;;;;;-5.71;74.62;97484.63;5032866;28;20125;-62
2022/01/05 08:51:01;;;;;;;21.00;8.07;;;;;;;-5.66;74.94;97506.25;5032520;28;20057;-62
2022/01/05 08:53:27;;;;;;;18.52;8.02;;;;;;;-5.63;74.83;97488.63;5032601;28;20128;-60
2022/01/05 08:55:54;;;;;;;32.38;14.65;;;;;;;-5.59;75.11;97472.66;5024188;28;20048;-63
2022/01/05 08:58:21;;;;;;;24.73;11.02;;;;;;;-5.64;74.82;97481.63;5032517;28;20087;-62
2022/01/05 09:00:49;;;;;;;21.65;9.45;;;;;;;-5.66;75.55;97468.34;5031215;28;20053;-62
2022/01/05 09:03:17;;;;;;;18.33;7.55;;;;;;;-5.63;74.89;97472.38;5029320;28;20141;-61
2022/01/05 09:05:45;;;;;;;20.02;7.72;;;;;;;-5.59;74.95;97467.22;5032175;28;20081;-63
2022/01/05 09:08:12;;;;;;;29.98;10.88;;;;;;;-5.63;74.79;97459.66;5029046;28;20058;-63
2022/01/05 09:10:40;;;;;;;21.70;8.77;;;;;;;-5.65;75.40;97461.84;5032337;28;20060;-62
2022/01/05 09:13:09;;;;;;;17.45;7.10;;;;;;;-5.64;75.40;97454.53;5032292;28;20071;-62
2022/01/05 09:15:37;;;;;;;17.75;7.70;;;;;;;-5.62;75.54;97442.31;5032642;28;20046;-62
2022/01/05 09:18:04;;;;;;;16.73;7.03;;;;;;;-5.63;75.76;97422.88;5031124;28;20057;-61
2022/01/05 09:20:31;;;;;;;18.58;8.23;;;;;;;-5.56;75.34;97417.94;5032534;28;20053;-62
2022/01/05 09:22:58;;;;;;;23.23;8.07;;;;;;;-5.53;75.09;97411.94;5030547;28;20049;-62
2022/01/05 09:25:25;;;;;;;18.02;7.15;;;;;;;-5.54;75.71;97407.63;5032268;28;20501;-61
2022/01/05 09:27:53;;;;;;;18.02;7.53;;;;;;;-5.54;75.67;97394.88;5031664;28;20136;-62
2022/01/05 09:30:22;;;;;;;21.85;8.57;;;;;;;-5.53;75.75;97390.28;5032309;28;20053;-62
2022/01/05 09:32:49;;;;;;;18.70;7.63;;;;;;;-5.48;75.88;97391.03;5029941;28;21206;-61
2022/01/05 09:35:19;;;;;;;17.67;7.70;;;;;;;-5.43;75.91;97379.38;5032359;28;20374;-62
2022/01/05 09:43:14;;;;;;;23.60;8.35;;;;;;;-5.51;76.01;97342.88;5031805;28;20055;-62
2022/01/05 09:46:09;;;;;;;22.95;6.13;;;;;;;-5.50;75.99;97322.84;5032663;28;20099;-63
2022/01/05 09:48:45;;;;;;;16.98;7.05;;;;;;;-5.53;76.06;97311.75;5029369;28;20069;-62
2022/01/05 09:51:16;;;;;;;21.00;7.18;;;;;;;-5.55;76.58;97339.13;5031435;28;21048;-62
2022/01/05 09:53:43;;;;;;;17.23;7.38;;;;;;;-5.62;76.61;97290.69;5031720;28;20049;-62
2022/01/05 09:56:33;;;;;;;18.88;8.40;;;;;;;-5.68;76.57;97302.66;5027630;28;20520;-63
2022/01/05 09:59:01;;;;;;;16.40;6.90;;;;;;;-5.68;76.57;97291.81;5032058;28;20132;-62
2022/01/05 10:01:34;;;;;;;22.27;7.38;;;;;;;-5.61;76.58;97275.25;5031529;28;20060;-62
2022/01/05 10:04:04;;;;;;;21.95;7.00;;;;;;;-5.60;76.56;97282.28;5024586;28;20053;-62
2022/01/05 10:06:36;;;;;;;19.10;6.32;;;;;;;-5.68;76.42;97264.75;5031452;28;20132;-63
2022/01/05 10:09:04;;;;;;;18.35;6.75;;;;;;;-5.66;76.58;97265.28;5031666;28;20124;-62
2022/01/05 10:11:31;;;;;;;17.40;7.40;;;;;;;-5.66;76.26;97254.47;5031382;28;20062;-62
2022/01/05 10:13:58;;;;;;;15.32;7.25;;;;;;;-5.71;76.86;97265.31;5031888;28;20060;-62
2022/01/05 10:16:25;;;;;;;22.45;9.85;;;;;;;-5.77;76.26;97250.22;5031431;28;20496;-59
2022/01/05 10:18:53;;;;;;;14.88;8.35;;;;;;;-5.79;76.25;97257.84;5031512;28;20132;-59
2022/01/05 10:21:20;;;;;;;23.75;7.38;;;;;;;-5.81;76.88;97253.78;5031362;28;20057;-59
2022/01/05 10:23:52;;;;;;;23.65;10.30;;;;;;;-5.80;76.72;97236.47;5031510;28;20049;-61
2022/01/05 10:26:23;;;;;;;21.45;7.32;;;;;;;-5.79;76.53;97224.53;5031300;28;20164;-60
2022/01/05 10:28:56;;;;;;;14.88;4.82;;;;;;;-5.75;76.86;97231.81;5032176;28;20511;-60
2022/01/05 10:31:30;;;;;;;19.88;9.32;;;;;;;-5.73;76.11;97213.38;5034806;28;20092;-60
2022/01/05 10:33:58;;;;;;;21.95;8.52;;;;;;;-5.75;76.61;97209.31;5032352;28;20053;-59
2022/01/05 10:36:53;;;;;;;23.95;11.13;;;;;;;-5.78;76.72;97216.13;5034932;28;20057;-59
2022/01/05 10:39:28;;;;;;;16.60;7.32;;;;;;;-5.77;76.63;97236.69;5035943;28;20056;-60
2022/01/05 10:41:55;;;;;;;26.08;11.45;;;;;;;-5.79;76.46;97202.88;5035419;28;20668;-60
2022/01/05 10:44:23;;;;;;;24.75;7.55;;;;;;;-5.77;76.54;97187.16;5035386;28;20056;-59
2022/01/05 10:46:56;;;;;;;15.23;6.47;;;;;;;-5.76;76.46;97192.31;5034961;28;20056;-61
2022/01/05 10:49:33;;;;;;;17.77;7.45;;;;;;;-5.70;76.66;97193.88;5035393;28;20100;-61
2022/01/05 10:52:19;;;;;;;17.33;7.68;;;;;;;-5.71;76.47;97186.03;5031292;28;20057;-58
2022/01/05 10:54:47;;;;;;;20.02;7.20;;;;;;;-5.75;76.77;97172.25;5034958;28;20095;-57
2022/01/05 10:57:15;;;;;;;20.02;9.55;;;;;;;-5.74;77.17;97173.84;5034932;28;20087;-57
2022/01/05 10:59:45;;;;;;;15.15;6.78;;;;;;;-5.80;77.05;97171.50;5034663;28;20054;-61
2022/01/05 11:02:32;;;;;;;21.48;9.05;;;;;;;-5.82;77.06;97161.00;5035023;28;20140;-60
2022/01/05 11:05:08;;;;;;;15.82;7.55;;;;;;;-5.88;77.53;97158.63;5034729;28;20063;-60
2022/01/05 11:07:39;;;;;;;22.80;7.80;;;;;;;-5.89;77.47;97138.84;5031303;28;20072;-58
2022/01/05 11:10:09;;;;;;;19.20;7.78;;;;;;;-5.92;77.86;97144.84;5034735;28;20080;-61
2022/01/05 11:12:40;;;;;;;24.02;10.23;;;;;;;-5.96;77.45;97127.56;5034949;28;20053;-58
2022/01/05 11:15:24;;;;;;;26.67;9.10;;;;;;;-5.94;78.01;97119.16;5034162;28;20140;-59
2022/01/05 11:18:13;;;;;;;18.95;8.25;;;;;;;-5.95;78.24;97122.97;5034210;28;20523;-60
2022/01/05 11:20:46;;;;;;;20.80;8.55;;;;;;;-5.99;78.07;97117.31;5022516;28;20053;-59
2022/01/05 11:23:14;;;;;;;19.83;8.93;;;;;;;-6.00;78.31;97115.72;5033081;28;20053;-58
2022/01/05 11:25:43;;;;;;;11.30;4.82;;;;;;;-6.02;78.14;97115.19;5034594;28;20111;-60
2022/01/05 11:28:12;;;;;;;17.92;9.38;;;;;;;-6.03;78.70;97126.28;5034530;28;20084;-60
2022/01/05 11:30:39;;;;;;;21.08;8.20;;;;;;;-6.06;79.00;97106.03;5034555;28;20519;-60